createdAt,value
2024-03-16T00:02:35.837Z,11.10
2024-03-16T00:05:24.521Z,11.09
2024-03-16T00:08:13.180Z,11.14
2024-03-16T00:11:02.879Z,11.13
2024-03-16T00:13:51.631Z,11.10
2024-03-16T00:16:40.241Z,11.11
2024-03-16T00:19:28.898Z,11.11
2024-03-16T00:22:17.556Z,11.09
2024-03-16T00:25:07.572Z,11.09
2024-03-16T00:27:56.930Z,11.05
2024-03-16T00:30:45.753Z,10.99
2024-03-16T00:33:34.428Z,11.02
2024-03-16T00:36:23.760Z,10.97
2024-03-16T00:39:19.225Z,10.92
2024-03-16T00:42:10.912Z,10.94
2024-03-16T00:44:59.557Z,10.90
2024-03-16T00:47:48.260Z,10.86
2024-03-16T00:50:36.909Z,10.76
2024-03-16T00:53:25.569Z,10.82
2024-03-16T00:56:14.366Z,10.85
2024-03-16T00:59:02.979Z,10.86
2024-03-16T01:01:53.461Z,10.85
2024-03-16T01:04:42.274Z,10.84
2024-03-16T01:07:30.880Z,10.84
2024-03-16T01:10:19.566Z,10.82
2024-03-16T01:13:08.540Z,10.80
2024-03-16T01:15:57.404Z,10.82
2024-03-16T01:18:46.185Z,10.81
2024-03-16T01:21:34.904Z,10.82
2024-03-16T01:24:23.801Z,10.82
2024-03-16T01:27:12.516Z,10.81
2024-03-16T01:30:01.348Z,10.79
2024-03-16T01:32:50.042Z,10.82
2024-03-16T01:35:38.717Z,10.85
2024-03-16T01:38:27.371Z,10.82
2024-03-16T01:41:16.004Z,10.76
2024-03-16T01:44:11.197Z,10.82
2024-03-16T01:46:59.869Z,10.84
2024-03-16T01:49:48.496Z,10.85
2024-03-16T01:52:37.143Z,10.91
2024-03-16T01:55:25.859Z,10.93
2024-03-16T01:58:14.578Z,10.68
2024-03-16T02:01:03.953Z,10.62
2024-03-16T02:03:52.865Z,10.92
2024-03-16T02:06:41.589Z,10.94
2024-03-16T02:09:30.624Z,10.86
2024-03-16T02:12:19.836Z,10.95
2024-03-16T02:15:09.827Z,10.93
2024-03-16T02:17:59.538Z,11.01
2024-03-16T02:20:48.284Z,11.06
2024-03-16T02:23:36.902Z,11.07
2024-03-16T02:26:25.891Z,11.05
2024-03-16T02:29:15.876Z,10.98
2024-03-16T02:32:06.992Z,10.91
2024-03-16T02:34:55.748Z,10.88
2024-03-16T02:37:44.460Z,10.87
2024-03-16T02:40:33.910Z,10.86
2024-03-16T02:43:22.598Z,10.69
2024-03-16T02:46:11.248Z,10.65
2024-03-16T02:49:00.106Z,10.64
2024-03-16T02:51:49.174Z,10.68
2024-03-16T02:54:37.985Z,10.62
2024-03-16T02:57:26.698Z,10.63
2024-03-16T03:00:16.095Z,10.66
2024-03-16T03:03:05.108Z,10.59
2024-03-16T03:05:54.259Z,10.54
2024-03-16T03:08:45.042Z,10.59
2024-03-16T03:11:34.125Z,10.60
2024-03-16T03:14:22.889Z,10.58
2024-03-16T03:17:12.126Z,10.53
2024-03-16T03:20:00.888Z,10.57
2024-03-16T03:22:51.019Z,10.54
2024-03-16T03:25:39.788Z,10.49
2024-03-16T03:28:28.632Z,10.51
2024-03-16T03:31:17.517Z,10.54
2024-03-16T03:34:06.558Z,10.44
2024-03-16T03:36:55.373Z,10.48
2024-03-16T03:39:44.129Z,10.47
2024-03-16T03:42:35.155Z,10.51
2024-03-16T03:45:38.835Z,10.55
2024-03-16T03:48:37.188Z,10.46
2024-03-16T03:51:26.024Z,10.40
2024-03-16T03:54:14.989Z,10.41
2024-03-16T03:57:05.224Z,10.32
2024-03-16T03:59:54.032Z,10.33
2024-03-16T04:02:42.737Z,10.37
2024-03-16T04:05:31.361Z,10.34
2024-03-16T04:08:20.116Z,10.30
2024-03-16T04:11:08.835Z,10.22
2024-03-16T04:13:57.571Z,10.24
2024-03-16T04:16:46.278Z,10.27
2024-03-16T04:19:35.075Z,10.27
2024-03-16T04:22:23.752Z,10.25
2024-03-16T04:25:13.662Z,10.23
2024-03-16T04:28:02.566Z,10.22
2024-03-16T04:30:51.372Z,10.21
2024-03-16T04:33:40.134Z,10.30
2024-03-16T04:36:28.871Z,10.24
2024-03-16T04:39:17.558Z,10.24
2024-03-16T04:42:06.336Z,10.26
2024-03-16T04:44:55.000Z,10.23
2024-03-16T04:47:43.668Z,10.31
2024-03-16T04:50:32.339Z,10.24
2024-03-16T04:53:21.025Z,10.21
2024-03-16T04:56:09.646Z,10.21
2024-03-16T04:58:58.289Z,10.24
2024-03-16T05:01:47.006Z,10.26
2024-03-16T05:04:35.776Z,10.20
2024-03-16T05:07:24.399Z,10.21
2024-03-16T05:10:13.133Z,10.19
2024-03-16T05:13:01.866Z,10.20
2024-03-16T05:15:50.774Z,10.22
2024-03-16T05:18:39.447Z,10.24
2024-03-16T05:21:28.213Z,10.27
2024-03-16T05:24:16.916Z,10.33
2024-03-16T05:27:06.031Z,10.35
2024-03-16T05:29:54.745Z,10.36
2024-03-16T05:32:44.078Z,10.36
2024-03-16T05:35:32.734Z,10.30
2024-03-16T05:38:21.830Z,10.30
2024-03-16T05:41:10.427Z,10.29
2024-03-16T05:43:59.054Z,10.29
2024-03-16T05:46:47.720Z,9.59
2024-03-16T05:49:37.197Z,10.31
2024-03-16T05:52:25.814Z,10.36
2024-03-16T05:55:16.737Z,10.32
2024-03-16T05:58:05.709Z,10.40
2024-03-16T06:00:55.024Z,10.45
2024-03-16T06:03:43.873Z,10.37
2024-03-16T06:06:33.414Z,10.36
2024-03-16T06:09:22.226Z,10.37
2024-03-16T06:12:10.851Z,10.43
2024-03-16T06:14:59.663Z,10.44
2024-03-16T06:17:48.400Z,10.29
2024-03-16T06:20:37.100Z,10.43
2024-03-16T06:23:25.725Z,10.49
2024-03-16T06:26:18.622Z,10.53
2024-03-16T06:29:08.081Z,10.55
2024-03-16T06:32:06.812Z,10.61
2024-03-16T06:34:55.877Z,10.66
2024-03-16T06:37:44.539Z,10.68
2024-03-16T06:40:33.149Z,10.72
2024-03-16T06:43:21.865Z,10.74
2024-03-16T06:46:11.882Z,10.82
2024-03-16T06:49:06.184Z,10.79
2024-03-16T06:51:55.444Z,10.92
2024-03-16T06:54:45.945Z,10.92
2024-03-16T06:57:34.827Z,11.01
2024-03-16T07:00:23.562Z,11.00
2024-03-16T07:03:13.224Z,11.02
2024-03-16T07:06:01.895Z,11.01
2024-03-16T07:08:50.624Z,11.06
2024-03-16T07:11:39.397Z,11.07
2024-03-16T07:14:28.067Z,11.04
2024-03-16T07:17:16.734Z,11.04
2024-03-16T07:20:07.564Z,11.04
2024-03-16T07:22:56.211Z,11.01
2024-03-16T07:25:44.932Z,11.17
2024-03-16T07:28:35.550Z,11.19
2024-03-16T07:31:25.600Z,11.28
2024-03-16T07:34:14.290Z,11.34
2024-03-16T07:37:03.007Z,11.51
2024-03-16T07:39:51.725Z,11.49
2024-03-16T07:42:40.447Z,11.49
2024-03-16T07:45:29.177Z,11.53
2024-03-16T07:48:18.079Z,11.62
2024-03-16T07:51:06.859Z,11.70
2024-03-16T07:53:55.503Z,11.74
2024-03-16T07:56:44.096Z,11.76
2024-03-16T07:59:32.707Z,11.87
2024-03-16T08:02:21.397Z,11.87
2024-03-16T08:05:12.268Z,12.05
2024-03-16T08:08:01.168Z,12.53
2024-03-16T08:10:49.884Z,12.88
2024-03-16T08:13:38.526Z,12.92
2024-03-16T08:16:27.181Z,12.79
2024-03-16T08:19:17.900Z,12.83
2024-03-16T08:22:06.821Z,12.85
2024-03-16T08:24:55.717Z,12.79
2024-03-16T08:27:44.456Z,12.71
2024-03-16T08:30:33.877Z,12.53
2024-03-16T08:33:22.687Z,12.44
2024-03-16T08:36:11.587Z,12.50
2024-03-16T08:39:01.406Z,12.56
2024-03-16T08:41:52.727Z,12.67
2024-03-16T08:44:44.485Z,12.80
2024-03-16T08:47:33.164Z,12.80
2024-03-16T08:50:21.831Z,12.79
2024-03-16T08:53:10.481Z,12.75
2024-03-16T08:56:00.891Z,12.74
2024-03-16T08:58:50.629Z,12.72
2024-03-16T09:01:40.008Z,12.76
2024-03-16T09:04:28.841Z,12.72
2024-03-16T09:07:17.517Z,12.57
2024-03-16T09:10:08.001Z,12.56
2024-03-16T09:12:56.978Z,12.48
2024-03-16T09:15:45.659Z,12.46
2024-03-16T09:18:34.809Z,12.43
2024-03-16T09:21:23.530Z,12.43
2024-03-16T09:24:12.238Z,12.48
2024-03-16T09:27:00.867Z,12.50
2024-03-16T09:29:49.514Z,12.45
2024-03-16T09:32:38.563Z,12.43
2024-03-16T09:35:28.111Z,12.47
2024-03-16T09:38:16.768Z,12.48
2024-03-16T09:41:05.586Z,12.46
